createdAt,value
2018-09-06T00:02:20.666Z,18.90
2018-09-06T00:04:48.900Z,18.90
2018-09-06T00:07:17.070Z,18.90
2018-09-06T00:09:45.236Z,18.80
2018-09-06T00:12:13.446Z,18.80
2018-09-06T00:14:41.603Z,18.80
2018-09-06T00:17:09.796Z,18.80
2018-09-06T00:19:37.970Z,18.80
2018-09-06T00:22:06.187Z,18.70
2018-09-06T00:24:34.373Z,18.70
2018-09-06T00:27:02.543Z,18.70
2018-09-06T00:29:30.711Z,18.70
2018-09-06T00:31:58.910Z,18.70
2018-09-06T00:34:27.099Z,18.70
2018-09-06T00:36:55.286Z,18.80
2018-09-06T00:39:23.491Z,18.70
2018-09-06T00:41:51.663Z,18.70
2018-09-06T00:44:19.839Z,18.70
2018-09-06T00:46:48.051Z,18.70
2018-09-06T00:49:16.214Z,18.70
2018-09-06T00:54:25.098Z,18.70
2018-09-06T00:56:53.270Z,18.70
2018-09-06T00:59:25.057Z,18.70
2018-09-06T01:01:54.106Z,18.70
2018-09-06T01:04:22.234Z,18.60
2018-09-06T01:06:50.429Z,18.60
2018-09-06T01:09:18.626Z,18.60
2018-09-06T01:11:47.010Z,18.60
2018-09-06T01:14:15.189Z,18.50
2018-09-06T01:16:43.377Z,18.50
2018-09-06T01:19:11.565Z,18.50
2018-09-06T01:21:39.758Z,18.50
2018-09-06T01:24:07.959Z,18.50
2018-09-06T01:26:36.093Z,18.40
2018-09-06T01:29:04.191Z,18.40
2018-09-06T01:31:32.374Z,18.40
2018-09-06T01:34:00.619Z,18.30
2018-09-06T01:36:34.217Z,18.30
2018-09-06T01:39:02.362Z,18.30
2018-09-06T01:41:30.556Z,18.30
2018-09-06T01:43:58.738Z,18.30
2018-09-06T01:46:26.941Z,18.20
2018-09-06T01:48:55.130Z,18.20
2018-09-06T01:51:23.302Z,18.20
2018-09-06T01:53:51.502Z,18.20
2018-09-06T01:56:19.898Z,18.20
2018-09-06T01:58:48.089Z,18.20
2018-09-06T02:01:16.595Z,18.20
2018-09-06T02:03:44.981Z,18.20
2018-09-06T02:06:13.165Z,18.20
2018-09-06T02:08:41.369Z,18.20
2018-09-06T02:11:09.538Z,18.20
2018-09-06T02:13:37.937Z,18.20
2018-09-06T02:16:06.245Z,18.20
2018-09-06T02:18:34.414Z,18.20
2018-09-06T02:21:02.793Z,18.20
2018-09-06T02:23:31.474Z,18.20
2018-09-06T02:25:59.559Z,18.10
2018-09-06T02:28:27.757Z,18.10
2018-09-06T02:30:55.931Z,18.10
2018-09-06T02:33:24.154Z,18.10
2018-09-06T02:35:52.334Z,18.00
2018-09-06T02:38:20.507Z,18.00
2018-09-06T02:40:48.674Z,17.90
2018-09-06T02:43:17.137Z,18.00
2018-09-06T02:45:45.389Z,17.90
2018-09-06T02:48:13.556Z,17.90
2018-09-06T02:50:47.331Z,17.90
2018-09-06T02:53:15.460Z,17.90
2018-09-06T02:55:43.851Z,17.90
2018-09-06T02:58:12.046Z,17.90
2018-09-06T03:00:40.217Z,17.80
2018-09-06T03:03:08.418Z,17.80
2018-09-06T03:05:36.587Z,17.80
2018-09-06T03:08:04.785Z,17.80
2018-09-06T03:10:40.157Z,17.80
2018-09-06T03:13:08.338Z,17.70
2018-09-06T03:15:36.550Z,17.70
2018-09-06T03:18:04.706Z,17.60
2018-09-06T03:20:32.882Z,17.60
2018-09-06T03:23:01.518Z,17.60
2018-09-06T03:25:29.674Z,17.50
2018-09-06T03:27:57.861Z,17.40
2018-09-06T03:30:26.054Z,17.40
2018-09-06T03:32:54.277Z,17.40
2018-09-06T03:35:22.435Z,17.40
2018-09-06T03:37:50.606Z,17.30
2018-09-06T03:40:18.794Z,17.30
2018-09-06T03:42:46.974Z,17.30
2018-09-06T03:45:15.165Z,17.40
2018-09-06T03:47:43.354Z,17.30
2018-09-06T03:50:11.559Z,17.30
2018-09-06T03:52:39.750Z,17.30
2018-09-06T03:55:07.984Z,17.30
2018-09-06T03:57:36.102Z,17.30
2018-09-06T04:00:04.422Z,17.30
2018-09-06T04:02:32.807Z,17.20
2018-09-06T04:05:01.093Z,17.20
2018-09-06T04:07:29.270Z,17.20
2018-09-06T04:09:57.574Z,17.20
2018-09-06T04:12:25.930Z,17.20
2018-09-06T04:14:54.146Z,17.20
2018-09-06T04:17:22.312Z,17.20
2018-09-06T04:19:50.550Z,17.20
2018-09-06T04:22:18.674Z,17.20
2018-09-06T04:24:46.885Z,17.20
2018-09-06T04:27:15.066Z,17.20
2018-09-06T04:29:43.271Z,17.20
2018-09-06T04:32:11.441Z,17.20
2018-09-06T04:34:39.642Z,17.20
2018-09-06T04:37:07.814Z,17.20
2018-09-06T04:39:36.001Z,17.20
2018-09-06T04:42:04.190Z,17.20
2018-09-06T04:44:32.409Z,17.20
2018-09-06T04:47:00.567Z,17.20
2018-09-06T04:49:28.777Z,17.10
2018-09-06T04:51:56.945Z,17.10
2018-09-06T04:54:25.125Z,17.10
2018-09-06T04:56:53.312Z,17.10
2018-09-06T04:59:21.510Z,17.10
2018-09-06T05:01:49.702Z,17.10
2018-09-06T05:04:17.899Z,17.10
2018-09-06T05:06:45.970Z,17.10
2018-09-06T05:09:14.155Z,17.10
2018-09-06T05:11:42.334Z,17.20
2018-09-06T05:14:10.550Z,17.10
2018-09-06T05:16:38.911Z,17.20
2018-09-06T05:19:07.135Z,17.20
2018-09-06T05:21:35.298Z,17.20
2018-09-06T05:24:03.678Z,17.20
2018-09-06T05:26:31.867Z,17.20
2018-09-06T05:29:00.048Z,17.30
2018-09-06T05:31:28.234Z,17.30
2018-09-06T05:33:56.405Z,17.30
2018-09-06T05:36:24.610Z,17.40
2018-09-06T05:38:52.777Z,17.40
2018-09-06T05:41:20.982Z,17.50
2018-09-06T05:43:49.162Z,17.50
2018-09-06T05:46:17.351Z,17.60
2018-09-06T05:48:45.548Z,17.60
2018-09-06T05:51:14.645Z,17.70
2018-09-06T05:53:42.817Z,17.70
2018-09-06T05:56:11.024Z,17.80
2018-09-06T05:58:39.201Z,17.80
2018-09-06T06:01:08.314Z,17.90
2018-09-06T06:03:36.489Z,17.90
2018-09-06T06:06:04.694Z,18.10
2018-09-06T06:08:43.901Z,18.10
2018-09-06T06:11:13.062Z,18.20
2018-09-06T06:13:41.283Z,18.30
2018-09-06T06:16:09.876Z,18.30
2018-09-06T06:18:37.902Z,18.40
2018-09-06T06:21:06.233Z,18.50
2018-09-06T06:23:34.454Z,18.60
2018-09-06T06:26:02.659Z,18.60
2018-09-06T06:28:30.869Z,18.70
2018-09-06T06:30:59.058Z,18.80
2018-09-06T06:33:27.558Z,18.90
2018-09-06T06:35:55.763Z,18.90
2018-09-06T06:38:23.928Z,19.00
2018-09-06T06:40:52.123Z,19.00
2018-09-06T06:43:20.306Z,19.00
2018-09-06T06:45:48.497Z,19.10
2018-09-06T06:48:16.665Z,19.10
2018-09-06T06:50:44.877Z,19.20
2018-09-06T06:53:13.043Z,19.20
2018-09-06T06:55:41.562Z,19.20
2018-09-06T06:58:09.721Z,19.30
2018-09-06T07:00:40.389Z,19.30
2018-09-06T07:03:09.693Z,19.30
2018-09-06T07:05:38.197Z,19.30
2018-09-06T07:08:06.938Z,19.30
2018-09-06T07:10:35.086Z,19.30
2018-09-06T07:13:03.224Z,19.30
2018-09-06T07:15:31.354Z,19.40
2018-09-06T07:17:59.534Z,19.40
2018-09-06T07:20:27.723Z,19.40
2018-09-06T07:22:56.097Z,19.50
2018-09-06T07:25:24.290Z,19.50
2018-09-06T07:27:52.458Z,19.50
2018-09-06T07:30:20.721Z,19.50
2018-09-06T07:32:48.833Z,19.50
2018-09-06T07:35:17.066Z,19.50
2018-09-06T07:37:45.231Z,19.60
2018-09-06T07:40:13.399Z,19.60
2018-09-06T07:42:41.625Z,19.60
2018-09-06T07:45:09.766Z,19.70
2018-09-06T07:47:37.973Z,19.80
2018-09-06T07:50:06.191Z,19.90
2018-09-06T07:52:34.363Z,20.00
2018-09-06T07:55:02.574Z,20.10
2018-09-06T07:57:31.141Z,20.20
2018-09-06T07:59:59.305Z,20.20
2018-09-06T08:02:27.502Z,20.30
2018-09-06T08:04:55.910Z,20.50
2018-09-06T08:07:24.197Z,20.60
2018-09-06T08:09:52.358Z,20.70
2018-09-06T08:12:20.550Z,20.80
2018-09-06T08:14:49.762Z,20.90
2018-09-06T08:17:17.949Z,21.00
2018-09-06T08:19:46.130Z,21.10
2018-09-06T08:22:14.318Z,21.20
2018-09-06T08:24:42.502Z,21.30
2018-09-06T08:27:10.714Z,21.40
2018-09-06T08:29:38.894Z,21.40
2018-09-06T08:32:07.070Z,21.40
2018-09-06T08:34:35.242Z,21.40
2018-09-06T08:37:03.457Z,21.40
2018-09-06T08:39:31.645Z,21.40
2018-09-06T08:41:59.809Z,21.40
2018-09-06T08:44:28.001Z,21.40
2018-09-06T08:46:56.302Z,21.40
2018-09-06T08:49:24.902Z,21.40
2018-09-06T08:51:53.021Z,21.40
2018-09-06T08:54:22.186Z,21.50
2018-09-06T08:56:50.370Z,21.70
2018-09-06T08:59:18.554Z,21.80
2018-09-06T09:01:46.789Z,22.00
2018-09-06T09:04:14.931Z,22.20
2018-09-06T09:06:43.115Z,22.40
2018-09-06T09:09:13.061Z,22.50
2018-09-06T09:11:41.238Z,22.60
2018-09-06T09:14:09.837Z,22.70
2018-09-06T09:16:38.070Z,22.70
2018-09-06T09:19:06.582Z,22.70
2018-09-06T09:21:34.936Z,22.70
2018-09-06T09:24:04.229Z,22.80
2018-09-06T09:26:32.631Z,22.80
2018-09-06T09:29:00.914Z,22.80
2018-09-06T09:31:29.142Z,22.80
2018-09-06T09:33:57.282Z,22.70
2018-09-06T09:36:25.448Z,22.60
2018-09-06T09:38:53.765Z,22.60
2018-09-06T09:41:21.933Z,22.60
2018-09-06T09:43:50.117Z,22.60
2018-09-06T09:48:45.775Z,22.60
2018-09-06T09:51:13.970Z,22.50
2018-09-06T09:53:42.158Z,22.40
2018-09-06T09:56:10.334Z,22.40
2018-09-06T09:58:38.553Z,22.40
2018-09-06T10:01:06.718Z,22.30
2018-09-06T10:03:40.378Z,22.30
2018-09-06T10:06:13.939Z,22.20
2018-09-06T10:08:47.714Z,22.10
2018-09-06T10:11:16.895Z,22.10
2018-09-06T10:13:45.057Z,22.00
2018-09-06T10:16:13.243Z,22.00
2018-09-06T10:18:41.446Z,22.00
2018-09-06T10:21:10.637Z,21.90
2018-09-06T10:23:38.834Z,22.00
2018-09-06T10:26:07.018Z,22.00
2018-09-06T10:28:35.122Z,22.00
2018-09-06T10:31:04.321Z,22.00
2018-09-06T10:33:32.517Z,22.00
2018-09-06T10:36:00.698Z,22.10
2018-09-06T10:38:28.897Z,22.00
2018-09-06T10:40:58.086Z,22.00
2018-09-06T10:43:26.306Z,22.00
2018-09-06T10:45:54.474Z,22.00
2018-09-06T10:48:22.653Z,22.00
2018-09-06T10:50:50.844Z,22.10
2018-09-06T10:53:19.034Z,22.10
2018-09-06T10:55:47.210Z,22.20
2018-09-06T10:58:15.399Z,22.30
2018-09-06T11:00:43.637Z,22.30
2018-09-06T11:03:11.778Z,22.40
2018-09-06T11:05:39.969Z,22.50
2018-09-06T11:08:08.185Z,22.60
2018-09-06T11:10:36.250Z,22.80
2018-09-06T11:13:04.422Z,22.90
2018-09-06T11:15:32.621Z,23.10
2018-09-06T11:18:00.818Z,23.30
2018-09-06T11:20:28.970Z,23.50
2018-09-06T11:22:57.179Z,23.90
2018-09-06T11:25:25.334Z,24.50
2018-09-06T11:27:53.612Z,25.30
2018-09-06T11:30:21.700Z,26.20
2018-09-06T11:32:49.918Z,26.80
2018-09-06T11:35:18.085Z,27.30
2018-09-06T11:37:46.294Z,27.70
2018-09-06T11:40:14.602Z,28.10
2018-09-06T11:42:42.646Z,28.40
2018-09-06T11:45:10.834Z,28.50
2018-09-06T11:47:39.105Z,28.50
2018-09-06T11:50:07.213Z,28.60
2018-09-06T11:52:35.402Z,28.60
2018-09-06T11:55:03.604Z,28.40
2018-09-06T11:57:31.802Z,28.20
2018-09-06T11:59:59.958Z,28.10
2018-09-06T12:02:28.134Z,28.00
2018-09-06T12:04:56.332Z,28.00
2018-09-06T12:07:24.506Z,27.80
2018-09-06T12:09:52.704Z,28.00
2018-09-06T12:12:20.950Z,28.40
2018-09-06T12:14:49.078Z,28.70
2018-09-06T12:17:17.256Z,29.10
2018-09-06T12:19:45.482Z,29.50
2018-09-06T12:22:13.683Z,29.80
2018-09-06T12:24:42.254Z,30.00
2018-09-06T12:27:10.639Z,30.20
2018-09-06T12:29:38.824Z,30.20
2018-09-06T12:32:07.034Z,29.80
2018-09-06T12:34:35.216Z,29.50
2018-09-06T12:37:03.390Z,29.40
2018-09-06T12:39:31.570Z,29.50
2018-09-06T12:41:59.757Z,29.70
2018-09-06T12:44:27.957Z,29.60
2018-09-06T12:46:56.334Z,29.60
2018-09-06T12:49:24.505Z,29.80
2018-09-06T12:51:52.705Z,30.30
2018-09-06T12:54:20.902Z,30.70
2018-09-06T12:56:49.077Z,31.10
2018-09-06T12:59:17.278Z,31.10
2018-09-06T13:01:45.458Z,30.80
2018-09-06T13:04:13.650Z,30.30
2018-09-06T13:06:41.822Z,29.80
2018-09-06T13:09:10.009Z,29.30
2018-09-06T13:11:38.313Z,28.80
2018-09-06T13:14:06.522Z,28.40
2018-09-06T13:16:34.889Z,28.10
2018-09-06T13:19:03.465Z,27.90
2018-09-06T13:21:31.895Z,27.80
2018-09-06T13:24:00.098Z,27.60
2018-09-06T13:26:28.242Z,27.40
2018-09-06T13:28:56.460Z,27.30
2018-09-06T13:31:24.618Z,27.10
2018-09-06T13:33:52.797Z,27.00
2018-09-06T13:36:20.981Z,26.80
2018-09-06T13:38:49.186Z,26.70
2018-09-06T13:41:17.393Z,26.60
2018-09-06T13:43:45.564Z,26.60
2018-09-06T13:46:13.755Z,26.40
2018-09-06T13:48:41.926Z,26.30
2018-09-06T13:51:10.126Z,26.20
2018-09-06T13:53:38.291Z,26.10
2018-09-06T13:56:06.493Z,26.00
2018-09-06T13:58:34.666Z,25.80
2018-09-06T14:01:02.871Z,25.60
2018-09-06T14:03:31.030Z,25.40
2018-09-06T14:05:59.263Z,25.30
2018-09-06T14:08:27.542Z,25.10
2018-09-06T14:10:55.725Z,24.90
2018-09-06T14:13:24.010Z,24.70
2018-09-06T14:15:52.181Z,24.60
2018-09-06T14:18:20.361Z,24.50
2018-09-06T14:20:48.563Z,24.40
2018-09-06T14:23:16.757Z,24.30
2018-09-06T14:25:44.970Z,24.20
2018-09-06T14:28:13.130Z,24.20
2018-09-06T14:30:41.326Z,24.10
2018-09-06T14:33:09.519Z,24.10
2018-09-06T14:35:37.698Z,24.10
2018-09-06T14:38:05.871Z,24.10
2018-09-06T14:40:34.066Z,24.10
2018-09-06T14:43:02.366Z,24.10
2018-09-06T14:45:30.553Z,24.10
2018-09-06T14:47:58.737Z,24.20
2018-09-06T14:50:26.953Z,24.30
2018-09-06T14:52:55.094Z,24.40
2018-09-06T14:55:23.350Z,24.30
2018-09-06T14:57:51.474Z,24.30
2018-09-06T15:00:19.675Z,24.20
2018-09-06T15:02:47.846Z,24.10
2018-09-06T15:05:16.080Z,24.00
2018-09-06T15:07:44.217Z,24.00
2018-09-06T15:10:12.410Z,23.90
2018-09-06T15:12:40.595Z,23.80
2018-09-06T15:15:08.786Z,23.80
2018-09-06T15:17:36.893Z,23.80
2018-09-06T15:20:05.292Z,23.70
2018-09-06T15:22:33.346Z,23.70
2018-09-06T15:25:01.547Z,23.70
2018-09-06T15:27:29.717Z,23.70
2018-09-06T15:29:57.941Z,23.70
2018-09-06T15:32:26.086Z,23.80
2018-09-06T15:34:54.294Z,23.80
2018-09-06T15:37:22.506Z,23.90
2018-09-06T15:39:50.654Z,23.90
2018-09-06T15:42:18.833Z,23.90
2018-09-06T15:44:47.025Z,23.90
2018-09-06T15:47:15.214Z,23.90
2018-09-06T15:49:43.480Z,23.80
2018-09-06T15:52:11.601Z,23.80
2018-09-06T15:54:39.766Z,23.70
2018-09-06T15:57:07.966Z,23.70
2018-09-06T15:59:36.154Z,23.70
2018-09-06T16:02:04.347Z,23.70
2018-09-06T16:04:32.530Z,23.70
2018-09-06T16:07:00.798Z,23.70
2018-09-06T16:09:29.005Z,23.70
2018-09-06T16:11:57.192Z,23.70
2018-09-06T16:14:25.366Z,23.70
2018-09-06T16:16:53.485Z,23.80
2018-09-06T16:19:21.633Z,23.80
2018-09-06T16:21:49.748Z,23.70
2018-09-06T16:24:18.929Z,23.70
2018-09-06T16:26:47.129Z,23.70
2018-09-06T16:29:15.313Z,23.70
2018-09-06T16:31:43.519Z,23.60
2018-09-06T16:34:11.686Z,23.60
2018-09-06T16:36:39.801Z,23.60
2018-09-06T16:39:09.186Z,23.60
2018-09-06T16:41:37.586Z,23.50
2018-09-06T16:44:05.926Z,23.50
2018-09-06T16:46:34.091Z,23.40
2018-09-06T16:49:02.246Z,23.40
2018-09-06T16:51:30.426Z,23.40
2018-09-06T16:53:58.618Z,23.30
2018-09-06T16:56:26.806Z,23.30
2018-09-06T16:58:55.018Z,23.30
2018-09-06T17:01:23.179Z,23.30
2018-09-06T17:03:52.385Z,23.20
2018-09-06T17:06:20.526Z,23.20
2018-09-06T17:08:48.734Z,23.10
2018-09-06T17:11:16.850Z,23.10
2018-09-06T17:13:45.032Z,23.10
2018-09-06T17:16:13.218Z,23.00
2018-09-06T17:18:41.400Z,22.90
2018-09-06T17:21:10.518Z,22.80
2018-09-06T17:23:41.809Z,22.80
2018-09-06T17:26:10.006Z,22.80
2018-09-06T17:28:38.132Z,22.70
2018-09-06T17:31:06.777Z,22.70
2018-09-06T17:33:34.920Z,22.60
2018-09-06T17:36:03.103Z,22.60
2018-09-06T17:38:31.347Z,22.60
2018-09-06T17:41:00.498Z,22.60
2018-09-06T17:43:28.683Z,22.50
2018-09-06T17:45:57.198Z,22.60
2018-09-06T17:48:25.367Z,22.60
2018-09-06T17:50:53.477Z,22.60
2018-09-06T17:53:21.639Z,22.50
2018-09-06T17:55:49.820Z,22.50
2018-09-06T17:58:18.009Z,22.50
2018-09-06T18:01:54.910Z,22.40
2018-09-06T18:04:23.101Z,22.40
2018-09-06T18:06:51.201Z,22.40
2018-09-06T18:09:19.390Z,22.40
2018-09-06T18:11:47.566Z,22.40
2018-09-06T18:14:15.735Z,22.40
2018-09-06T18:16:43.934Z,22.40
2018-09-06T18:19:12.126Z,22.30
2018-09-06T18:21:40.319Z,22.30
2018-09-06T18:24:08.530Z,22.20
2018-09-06T18:26:36.642Z,22.20
2018-09-06T18:29:04.758Z,22.10
2018-09-06T18:31:32.960Z,22.10
2018-09-06T18:34:01.146Z,22.00
2018-09-06T18:36:29.334Z,22.00
2018-09-06T18:38:57.522Z,21.90
2018-09-06T18:41:25.693Z,21.90
2018-09-06T18:43:53.925Z,21.80
2018-09-06T18:46:22.062Z,21.80
2018-09-06T18:48:50.426Z,21.80
2018-09-06T18:51:18.558Z,21.80
2018-09-06T18:53:46.754Z,21.70
2018-09-06T18:56:14.932Z,21.70
2018-09-06T18:58:43.110Z,21.60
2018-09-06T19:01:12.213Z,21.50
2018-09-06T19:03:40.412Z,21.40
2018-09-06T19:06:08.498Z,21.40
2018-09-06T19:08:36.683Z,21.30
2018-09-06T19:11:04.866Z,21.20
2018-09-06T19:13:33.082Z,21.10
2018-09-06T19:16:01.233Z,21.10
2018-09-06T19:18:29.435Z,21.00
2018-09-06T19:20:57.610Z,21.00
2018-09-06T19:23:25.799Z,20.90
2018-09-06T19:25:54.329Z,20.90
2018-09-06T19:28:22.498Z,20.80
2018-09-06T19:30:50.670Z,20.70
2018-09-06T19:33:18.866Z,20.70
2018-09-06T19:35:47.103Z,20.70
2018-09-06T19:38:15.254Z,20.70
2018-09-06T19:40:43.437Z,20.60
2018-09-06T19:43:11.632Z,20.60
2018-09-06T19:45:39.802Z,20.60
2018-09-06T19:48:08.002Z,20.70
2018-09-06T19:50:36.169Z,20.60
2018-09-06T19:53:04.362Z,20.70
2018-09-06T19:55:32.554Z,20.70
2018-09-06T19:58:00.737Z,20.70
2018-09-06T20:00:28.941Z,20.60
2018-09-06T20:02:57.118Z,20.60
2018-09-06T20:05:25.303Z,20.50
2018-09-06T20:07:53.529Z,20.50
2018-09-06T20:10:21.890Z,20.40
2018-09-06T20:12:50.814Z,20.40
2018-09-06T20:15:19.069Z,20.30
2018-09-06T20:17:47.273Z,20.30
2018-09-06T20:20:15.471Z,20.20
2018-09-06T20:22:43.638Z,20.20
2018-09-06T20:25:11.802Z,20.20
2018-09-06T20:27:39.983Z,20.10
2018-09-06T20:30:08.178Z,20.10
2018-09-06T20:32:36.355Z,20.10
2018-09-06T20:35:04.685Z,20.10
2018-09-06T20:37:32.841Z,20.10
2018-09-06T20:40:01.034Z,20.00
2018-09-06T20:42:29.222Z,20.00
2018-09-06T20:44:57.403Z,20.00
2018-09-06T20:47:25.586Z,20.00
2018-09-06T20:49:53.786Z,19.90
2018-09-06T20:52:21.965Z,19.90
2018-09-06T20:54:50.146Z,19.90
2018-09-06T20:57:18.366Z,19.80
2018-09-06T20:59:46.521Z,19.80
2018-09-06T21:02:20.306Z,19.80
2018-09-06T21:04:48.430Z,19.80
2018-09-06T21:07:16.662Z,19.80
2018-09-06T21:09:44.821Z,19.70
2018-09-06T21:12:12.981Z,19.70
2018-09-06T21:14:41.398Z,19.70
2018-09-06T21:17:09.557Z,19.70
2018-09-06T21:19:38.090Z,19.70
2018-09-06T21:22:06.237Z,19.70
2018-09-06T21:24:34.558Z,19.80
2018-09-06T21:27:02.723Z,19.80
2018-09-06T21:29:30.922Z,19.80
2018-09-06T21:31:59.085Z,19.80
2018-09-06T21:34:27.292Z,19.80
2018-09-06T21:36:55.465Z,19.80
2018-09-06T21:39:23.672Z,19.80
2018-09-06T21:41:51.878Z,19.90
2018-09-06T21:44:20.030Z,19.90
2018-09-06T21:46:48.209Z,19.90
2018-09-06T21:49:16.413Z,19.90
2018-09-06T21:51:44.577Z,20.00
2018-09-06T21:54:12.773Z,20.00
2018-09-06T21:56:40.951Z,20.00
2018-09-06T21:59:09.158Z,19.90
2018-09-06T22:01:37.331Z,19.90
2018-09-06T22:04:07.641Z,19.90
2018-09-06T22:06:36.699Z,20.00
2018-09-06T22:09:08.370Z,19.90
2018-09-06T22:11:36.530Z,20.00
2018-09-06T22:14:04.722Z,19.90
2018-09-06T22:16:32.913Z,20.00
2018-09-06T22:19:01.111Z,19.90
2018-09-06T22:21:29.270Z,19.90
2018-09-06T22:23:57.501Z,19.90
2018-09-06T22:26:25.646Z,19.90
2018-09-06T22:28:53.846Z,19.80
2018-09-06T22:31:22.030Z,19.80
2018-09-06T22:33:50.210Z,19.80
2018-09-06T22:36:18.415Z,19.80
2018-09-06T22:38:46.582Z,19.80
2018-09-06T22:41:14.778Z,19.80
2018-09-06T22:43:42.954Z,19.70
2018-09-06T22:46:11.162Z,19.70
2018-09-06T22:48:39.342Z,19.70
2018-09-06T22:51:07.522Z,19.70
2018-09-06T22:53:35.710Z,19.60
2018-09-06T22:56:04.131Z,19.60
2018-09-06T22:58:32.366Z,19.60
2018-09-06T23:01:00.478Z,19.50
2018-09-06T23:03:34.258Z,19.50
2018-09-06T23:06:02.385Z,19.50
2018-09-06T23:08:30.592Z,19.50
2018-09-06T23:10:58.773Z,19.50
2018-09-06T23:13:26.967Z,19.50
2018-09-06T23:15:55.166Z,19.50
2018-09-06T23:18:23.326Z,19.50
2018-09-06T23:20:51.525Z,19.40
2018-09-06T23:23:19.705Z,19.40
2018-09-06T23:25:47.892Z,19.30
2018-09-06T23:28:16.078Z,19.30
2018-09-06T23:30:45.201Z,19.30
2018-09-06T23:33:13.369Z,19.30
2018-09-06T23:35:44.095Z,19.20
2018-09-06T23:38:13.275Z,19.20
2018-09-06T23:40:45.667Z,19.20
2018-09-06T23:43:13.793Z,19.10
2018-09-06T23:45:41.989Z,19.10
2018-09-06T23:48:10.174Z,19.00
2018-09-06T23:50:38.361Z,19.00
2018-09-06T23:53:06.545Z,19.00
2018-09-06T23:55:34.757Z,19.00
2018-09-06T23:58:02.946Z,19.00
